WetterOnline ( https://www.wetteronline.de )

Wetter aktuell Büdesheim

Aktuelles Wetter: Nürburg-Barweiler (488m)

6-stündlich | Neueste Meldungen
Ortszeit Temperatur Wetter
Di, 01.12. 13:00 3.1° C bedeckt
Di, 01.12. 7:00 0.2° C Sprühregen
Di, 01.12. 1:00 -0.6° C gefrierender Regen
Mo, 30.11. 19:00 0.4° C leichter Regen
Mo, 30.11. 13:00 1.0° C leicht bewölkt
Mo, 30.11. 7:00 -5.2° C wolkenlos
Mo, 30.11. 1:00 -4.9° C wolkenlos
So, 29.11. 19:00 -3.4° C leicht bewölkt
Ortszeit Temperatur Wetter
Di, 01.12. 16:30 4.1° C Regen
Di, 01.12. 16:20 4.1° C Regen
Di, 01.12. 16:10 4.1° C Regen
Di, 01.12. 16:00 4.2° C leichter Regen
Di, 01.12. 15:50 4.2° C leichter Regen
Di, 01.12. 15:40 3.9° C Regen
Di, 01.12. 15:30 4.0° C leichter Regen
Di, 01.12. 15:00 3.9° C Sprühregen
Di, 01.12. 14:30 3.9° C bewölkt
Di, 01.12. 14:00 3.6° C Sprühregen
Di, 01.12. 13:30 3.6° C bedeckt
Ortszeit Relative Feuchte Sichtweite
Di, 01.12. 13:00 98% 3.5 km
Di, 01.12. 7:00 99% 3.8 km
Di, 01.12. 1:00 94% 12 km
Mo, 30.11. 19:00 80% 12 km
Mo, 30.11. 13:00 72% 20 km
Mo, 30.11. 7:00 93% 13 km
Mo, 30.11. 1:00 91% 10 km
So, 29.11. 19:00 87% 15 km
Ortszeit Relative Feuchte Sichtweite
Di, 01.12. 16:30 95% 0.9 km
Di, 01.12. 16:20 95% -
Di, 01.12. 16:10 96% -
Di, 01.12. 16:00 95% 8 km
Di, 01.12. 15:50 95% -
Di, 01.12. 15:40 97% -
Di, 01.12. 15:30 99% 9 km
Di, 01.12. 15:00 99% 3.4 km
Di, 01.12. 14:30 98% 2.7 km
Di, 01.12. 14:00 98% 1.3 km
Di, 01.12. 13:30 98% 5.0 km
Ortszeit Niederschlagsmenge Niederschlagsart
Di, 01.12. 13:00 0.5 l/m2 in 6 Std. Regen
Di, 01.12. 7:00 3 l/m2 in 12 Std. Schnee, Regen
Di, 01.12. 1:00 2 l/m2 in 6 Std. Schnee, Regen
Mo, 30.11. 19:00 0.1 l/m2 in 12 Std. Regen
Mo, 30.11. 13:00 0.0 l/m2 in 6 Std. -
Mo, 30.11. 7:00 0.0 l/m2 in 12 Std. -
Mo, 30.11. 1:00 0.0 l/m2 in 6 Std. -
So, 29.11. 19:00 0.0 l/m2 in 12 Std. -
Ortszeit Niederschlagsmenge Niederschlagsart
Di, 01.12. 16:30 1.4 l/m2 in 1 Std. -
Di, 01.12. 16:20 keine Meldung -
Di, 01.12. 16:10 keine Meldung -
Di, 01.12. 16:00 1.2 l/m2 in 1 Std. Regen
Di, 01.12. 15:50 keine Meldung -
Di, 01.12. 15:40 keine Meldung -
Di, 01.12. 15:30 0.1 l/m2 in 1 Std. -
Di, 01.12. 15:00 0.1 l/m2 in 1 Std. Regen
Di, 01.12. 14:30 0.1 l/m2 in 1 Std. Schnee
Di, 01.12. 14:00 0.1 l/m2 in 1 Std. Sprühregen
Di, 01.12. 13:30 0.1 l/m2 in 1 Std. Schnee
Ortszeit Stärke Spitze Richtung
km/h Bft. km/h Grad Sektor
Di, 01.12. 13:00 4 1 18 240° SW
Di, 01.12. 7:00 6 1 26 220° SW
Di, 01.12. 1:00 11 2 32 220° SW
Mo, 30.11. 19:00 11 2 22 210° SW
Mo, 30.11. 13:00 11 2 22 230° SW
Mo, 30.11. 7:00 7 2 14 190° S
Mo, 30.11. 1:00 7 2 11 170° S
So, 29.11. 19:00 4 1 22 120° SO
Ortszeit Stärke Spitze Richtung
km/h Bft. km/h Grad Sektor
Di, 01.12. 16:30 0 0 4 - -
Di, 01.12. 16:20 2 1 - 110° O
Di, 01.12. 16:10 2 1 - 80° O
Di, 01.12. 16:00 4 1 11 40° NO
Di, 01.12. 15:50 4 1 - 40° NO
Di, 01.12. 15:40 4 1 - 190° S
Di, 01.12. 15:30 7 2 11 190° S
Di, 01.12. 15:00 4 1 7 230° SW
Di, 01.12. 14:30 6 1 7 200° S
Di, 01.12. 14:00 4 1 7 200° S
Di, 01.12. 13:30 4 1 7 210° SW
Ortszeit Untergrenze Bedeckung Gattung
total tief tief mittel hoch
Di, 01.12. 13:00 30 m 8/8 8/8 - - -
Di, 01.12. 7:00 30 m 8/8 8/8 - - -
Di, 01.12. 1:00 180 m 8/8 8/8 - - -
Mo, 30.11. 19:00 300 m 8/8 8/8 - - -
Mo, 30.11. 13:00 2400 m 2/8 2/8 - - -
Mo, 30.11. 7:00 - 0/8 0/8 - - -
Mo, 30.11. 1:00 - 0/8 0/8 - - -
So, 29.11. 19:00 240 m 4/8 4/8 - - -
Ortszeit Bedeckungsgrad in Achtel und Wolkenuntergrenze
Di, 01.12. 16:30 1(630m) 8(810m)
Di, 01.12. 16:20 1(630m) 8(810m)
Di, 01.12. 16:10 1(240m) 1(420m) 8(810m)
Di, 01.12. 16:00 1(60m) 7(570m) 8(750m)
Di, 01.12. 15:50 1(60m) 7(570m) 8(750m)
Di, 01.12. 15:40 1(<30m) 7(450m) 8(630m)
Di, 01.12. 15:30 5(30m) 7(180m) 7(300m)
Di, 01.12. 15:00 6(30m) 8(120m) 8(330m)
Di, 01.12. 14:30 7(<30m) 7(120m) 8(330m)
Di, 01.12. 14:00 7(30m) 8(120m)
Di, 01.12. 13:30 4(<30m) 8(150m) 8(390m)
Ortszeit Luftdruck NN (hPa) Tendenz (hPa in 3 Std.)
Di, 01.12. 13:00 1016 + 0,6
Di, 01.12. 7:00 1015 - 0,7
Di, 01.12. 1:00 1017 - 1,8
Mo, 30.11. 19:00 1022 - 1,7
Mo, 30.11. 13:00 1026 - 1,2
Mo, 30.11. 7:00 1028 + 0,2
Mo, 30.11. 1:00 1028 - 0,1
So, 29.11. 19:00 1028 + 1,1
Ortszeit Luftdruck NN (hPa) Tendenz (hPa in 3 Std.)
Di, 01.12. 16:30 1016 + 0,6
Di, 01.12. 16:20 1016 keine Meldung
Di, 01.12. 16:10 1016 keine Meldung
Di, 01.12. 16:00 1016 + 0,5
Di, 01.12. 15:50 1016 keine Meldung
Di, 01.12. 15:40 1016 keine Meldung
Di, 01.12. 15:30 1016 + 0,5
Di, 01.12. 15:00 1015 + 0,2
Di, 01.12. 14:30 1015 0,0
Di, 01.12. 14:00 1015 + 0,1
Di, 01.12. 13:30 1015 + 0,3
Ortszeit Schneehöhe (cm)
Di, 01.12. 13:00 0
Di, 01.12. 7:00 0
Di, 01.12. 1:00 1
Mo, 30.11. 19:00 0
Mo, 30.11. 13:00 0
Mo, 30.11. 7:00 0
Mo, 30.11. 1:00 0
So, 29.11. 19:00 0
Ortszeit Schneehöhe (cm)
Di, 01.12. 16:30 0
Di, 01.12. 16:20 0
Di, 01.12. 16:10 0
Di, 01.12. 16:00 0
Di, 01.12. 15:50 0
Di, 01.12. 15:40 0
Di, 01.12. 15:30 0
Di, 01.12. 15:00 0
Di, 01.12. 14:30 0
Di, 01.12. 14:00 0
Di, 01.12. 13:30 0
Link zu dieser Seite / Seite empfehlen

Das Wetter in ...